Flight Track Log - Related Links

Times and Time Zones

All times are in EDT time to prevent confusion due to time zone crossing. See the GJS3618 flight status page for this flight to view local times or setup timezone preferences in your user account.

Time Position Orientation Groundspeed Altitude Reporting Facility
EDT Latitude Longitude Course Direction KTS MPH feet Rate Location/Type
Mon 09:17:56 AM 41.9500 -87.9000 114° Southeast 153 176 1,900  Level Chicago TRACON
Mon 09:18:50 AM 41.9333 -87.8500 114° Southeast 219 252 3,200 1,400 Climbing Chicago TRACON
Mon 09:19:56 AM 41.9500 -87.7333 79° East 295 339 4,700 2,109 Climbing Chicago TRACON
Mon 09:21:35 AM 42.0147 -87.5825 60° Northeast 315 362 9,000 2,534 Climbing Chicago Center
Mon 09:22:37 AM 42.0672 -87.4806 55° Northeast 331 381 11,500 2,419 Climbing Chicago Center
Mon 09:23:39 AM 42.1206 -87.3761 55° Northeast 339 390 14,000 1,839 Climbing Chicago Center
Mon 09:24:41 AM 42.1794 -87.2611 55° Northeast 372 428 15,300 1,258 Climbing Chicago Center
Mon 09:25:43 AM 42.2439 -87.1314 56° Northeast 413 475 16,600 1,742 Climbing Chicago Center
Mon 09:26:45 AM 42.2844 -86.9475 73° East 440 506 18,900 2,032 Climbing Chicago Center
Mon 09:27:47 AM 42.2908 -86.7803 87° East 444 511 20,800 1,694 Climbing Chicago Center
Mon 09:28:49 AM 42.2961 -86.6103 88° East 451 519 22,400 1,210 Climbing Chicago Center
Mon 09:29:51 AM 42.3033 -86.4456 87° East 462 532 23,300 871 Climbing Chicago Center
Mon 09:30:53 AM 42.3106 -86.2275 87° East 484 557 24,200 871 Climbing Chicago Center
Mon 09:31:55 AM 42.3153 -86.0386 88° East 503 579 25,100 774 Climbing Chicago Center
Mon 09:32:57 AM 42.3122 -85.8447 91° East 517 595 25,800 774 Climbing Chicago Center
Mon 09:33:59 AM 42.3094 -85.6472 91° East 529 609 26,700 823 Climbing Chicago Center
Mon 09:35:01 AM 42.3075 -85.4444 91° East 539 620 27,500 960 Climbing Chicago Center
Mon 09:35:39 AM 42.3075 -85.2894 90° East 532 612 28,300 1,224 Climbing Cleveland Center
Mon 09:36:39 AM 42.3033 -85.0842 92° East 542 624 29,500 1,200 Climbing Cleveland Center
Mon 09:37:39 AM 42.2983 -84.8844 92° East 542 624 30,700 1,160 Climbing Cleveland Center
Mon 09:38:38 AM 42.2933 -84.6792 92° East 536 617 31,800 908 Climbing Cleveland Center
Mon 09:40:11 AM 42.2969 -84.3992 89° East 532 612 33,000 595 Climbing Chicago Center
Mon 09:40:39 AM 42.3103 -84.3039 79° East 536 617 33,000 414 Level Cleveland Center
Mon 09:41:38 AM 42.3375 -84.1031 80° East 536 617 33,600 807 Climbing Cleveland Center
Mon 09:42:38 AM 42.3664 -83.9050 79° East 536 617 34,600 700 Climbing Cleveland Center
Mon 09:43:38 AM 42.3928 -83.7097 80° East 542 624 35,000 200 Climbing Cleveland Center
Mon 09:44:38 AM 42.4089 -83.4881 84° East 550 633 35,000  Level Cleveland Center
Mon 09:45:39 AM 42.4181 -83.2861 86° East 538 619 35,000  Level Cleveland Center
Mon 09:46:39 AM 42.4267 -83.0867 87° East 532 612 35,000  Level Cleveland Center
Mon 09:47:39 AM 42.4328 -82.8928 87° East 532 612 35,000  Level Cleveland Center
Mon 09:48:39 AM 42.4386 -82.6961 88° East 526 605 35,000  Level Cleveland Center
Mon 09:49:39 AM 42.4442 -82.4992 88° East 526 605 35,000  Level Cleveland Center
Mon 09:50:39 AM 42.4472 -82.3053 89° East 520 598 35,000  Level Cleveland Center
Mon 09:51:39 AM 42.4539 -82.1281 87° East 515 593 35,000  Level Cleveland Center
Mon 09:52:38 AM 42.4589 -81.9086 88° East 515 593 35,000  Level Cleveland Center
Mon 09:53:39 AM 42.4628 -81.7344 88° East 515 593 35,000  Level Cleveland Center
Mon 09:54:39 AM 42.4669 -81.5119 88° East 515 593 35,000  Level Cleveland Center
Mon 09:55:39 AM 42.4725 -81.3178 88° East 515 593 35,000  Level Cleveland Center
Mon 09:56:39 AM 42.4756 -81.1153 89° East 515 593 35,000  Level Cleveland Center
Mon 09:57:39 AM 42.4783 -80.9208 89° East 521 600 35,000  Level Cleveland Center
Mon 09:58:38 AM 42.4831 -80.7211 88° East 521 600 35,000  Level Cleveland Center
Mon 09:59:38 AM 42.4853 -80.5214 89° East 526 605 35,000  Level Cleveland Center
Mon 10:00:39 AM 42.4869 -80.3242 89° East 526 605 35,000  Level Cleveland Center
Mon 10:01:38 AM 42.4864 -80.1467 90° East 531 611 35,000  Level Cleveland Center
Mon 10:02:39 AM 42.4919 -79.9469 88° East 531 611 35,000  Level Cleveland Center
Mon 10:03:38 AM 42.4947 -79.7328 89° East 524 603 35,000  Level Cleveland Center
Mon 10:04:39 AM 42.4911 -79.5611 92° East 518 596 35,000  Level Cleveland Center
Mon 10:05:39 AM 42.4956 -79.3639 88° East 512 589 35,000  Level Cleveland Center
Mon 10:06:39 AM 42.4994 -79.1694 88° East 517 595 35,000  Level Cleveland Center
Mon 10:07:38 AM 42.5136 -78.9806 84° East 517 595 35,000  Level Cleveland Center
Mon 10:08:38 AM 42.5256 -78.7886 85° East 511 588 35,000  Level Cleveland Center
Mon 10:09:39 AM 42.5392 -78.5994 84° East 511 588 35,000  Level Cleveland Center
Mon 10:10:39 AM 42.5503 -78.4131 85° East 504 580 35,000 -400 Level Cleveland Center
Mon 10:11:39 AM 42.5631 -78.2208 85° East 499 574 34,200 -850 Descending Cleveland Center
Mon 10:12:39 AM 42.5739 -78.0314 85° East 499 574 33,300 -600 Descending Cleveland Center
Mon 10:13:39 AM 42.5842 -77.8478 86° East 499 574 33,000 -700 Descending Cleveland Center
Mon 10:14:39 AM 42.5917 -77.6472 87° East 493 567 31,900 -1,400 Descending Cleveland Center
Mon 10:15:39 AM 42.6058 -77.4686 84° East 481 554 30,200 -1,450 Descending Cleveland Center
Mon 10:16:39 AM 42.6156 -77.2933 86° East 481 554 29,000 -600 Descending Cleveland Center
Mon 10:17:39 AM 42.6250 -77.1150 86° East 476 548 29,000  Level Cleveland Center
Mon 10:18:51 AM 42.6347 -76.9281 86° East 471 542 29,000  Level Boston Center
Mon 10:19:51 AM 42.6436 -76.7536 86° East 461 531 29,000  Level Boston Center
Mon 10:20:50 AM 42.6522 -76.5792 86° East 461 531 29,000  Level Boston Center
Mon 10:22:02 AM 42.6586 -76.4044 87° East 461 531 29,000 -226 Level Boston Center
Mon 10:23:03 AM 42.6697 -76.1989 86° East 461 531 28,500 -645 Descending Boston Center
Mon 10:24:03 AM 42.6775 -76.0186 87° East 461 531 27,700 -814 Descending Boston Center
Mon 10:25:01 AM 42.6850 -75.8411 87° East 461 531 26,900 -807 Descending Boston Center
Mon 10:26:02 AM 42.6925 -75.6606 87° East 466 536 26,100 -1,488 Descending Boston Center
Mon 10:27:02 AM 42.7061 -75.4664 84° East 474 545 23,900 -2,100 Descending Boston Center
Mon 10:28:02 AM 42.7578 -75.3189 64° Northeast 446 513 21,900 -1,983 Descending Boston Center
Mon 10:29:03 AM 42.8092 -75.1825 63° Northeast 425 489 19,900 -2,017 Descending Boston Center
Mon 10:30:01 AM 42.8581 -75.0572 62° Northeast 406 467 17,900 -1,678 Descending Boston Center
Mon 10:31:01 AM 42.8833 -74.9506 72° East 388 447 16,600 -1,636 Descending Boston Center
Mon 10:32:02 AM 42.9111 -74.8186 74° East 370 426 14,600 -2,147 Descending Boston Center
Mon 10:32:50 AM 42.9283 -74.6917 79° East 366 421 12,700 -1,862 Descending Boston Center
Mon 10:33:58 AM 42.9439 -74.5333 82° East 368 423 11,000 -779 Descending Boston Center
Mon 10:35:01 AM 42.9522 -74.4089 85° East 349 402 11,000 -581 Level Boston Center
Mon 10:36:02 AM 42.9567 -74.2756 87° East 324 373 9,800 -1,475 Descending Boston Center
Mon 10:37:03 AM 42.9603 -74.1736 87° East 301 346 8,000 -1,866 Descending Boston Center
Mon 10:38:01 AM 42.9661 -74.0631 86° East 282 325 6,100 -1,881 Descending Boston Center
Mon 10:39:01 AM 42.9572 -73.9578 97° East 271 312 4,300 -1,438 Descending Boston Center
Mon 10:40:02 AM 42.9289 -73.8892 119° Southeast 211 243 3,200 -787 Descending Boston Center
Mon 10:41:03 AM 42.8878 -73.8456 142° Southeast 195 224 2,700 -347 Descending Boston Center
Mon 10:42:03 AM 42.8528 -73.8136 146° Southeast 179 206 2,500 -661 Descending Boston Center
Mon 10:42:52 AM 42.8194 -73.8158 183° South 127 146 1,500 -936 Descending Boston Center
Mon 10:43:52 AM 42.7819 -73.8064 170° South 129 148 800 -700 Descending Boston Center

Login

Don't have an account? Register now (free) for customized features, flight alerts, and more!